Main page
METAR-TAF:

METAR-TAF

Airports :

Dubai International Airport

Dubai, United Arab Emirates

latitude: 25-15-10N, longitude: 055-21-52E, elevation: 8 m

Current weather observation

The report was made 39 minutes ago, at 22:00 UTC
Wind 5 kt from the Northeast, varying between North and East
Temperature 35°C
Humidity 67%
Pressure 994 hPa
Visibility 10 km or more
no clouds below 1500 m and no cumulonimbus

METAR: OMDB 052200Z 05005KT 350V100 CAVOK 35/28 Q0994 NOSIG

Time: 02:39 (22:39 UTC)

Forecast

The report was made 5 hours and 39 minutes ago, at 17:00 UTC
Forecast valid from 05 at 18 UTC to 07 at 00 UTC
Wind 7 kt from the East
Visibility 10 km or more
no clouds below 1500 m and no cumulonimbus
Becoming
from 06 at 07 UTC to 06 at 09 UTC
Wind 12 kt from the North/Northwest
Becoming
from 06 at 16 UTC to 06 at 18 UTC
Wind 5 kt from the Northeast

TAF: OMDB 051700Z 0518/0700 08007KT CAVOK BECMG 0607/0609 33012KT BECMG 0616/0618 04005KT

Weather observations and forecasts of more than 4000 airports (METAR and TAF reports).

The available stations are represented by yellow and red dots on the map.

Hover mouse over dot to see the name of the station.

Then click to see weather observations and forecasts.

To change the map : click on the green buttons with a black cross to zoom in, on the green button with a dash to zoom out, or on the green arrows for adjacent maps.


METAR-TAF: